createdAt,value
2023-07-07T00:01:27.084Z,2.00
2023-07-07T00:03:53.964Z,1.55
2023-07-07T00:06:20.732Z,1.95
2023-07-07T00:08:47.638Z,1.30
2023-07-07T00:13:40.623Z,1.45
2023-07-07T00:16:07.219Z,1.95
2023-07-07T00:18:33.995Z,1.60
2023-07-07T00:21:01.693Z,1.92
2023-07-07T00:23:29.336Z,2.05
2023-07-07T00:26:08.362Z,1.55
2023-07-07T00:28:35.204Z,1.27
2023-07-07T00:31:02.693Z,1.83
2023-07-07T00:33:29.385Z,1.75
2023-07-07T00:35:56.170Z,1.50
2023-07-07T00:38:23.281Z,2.20
2023-07-07T00:40:53.104Z,1.58
2023-07-07T00:43:21.752Z,1.65
2023-07-07T00:45:48.337Z,1.40
2023-07-07T00:48:22.067Z,1.40
2023-07-07T00:50:55.744Z,1.70
2023-07-07T00:53:22.876Z,1.50
2023-07-07T00:58:30.168Z,1.60
2023-07-07T01:01:03.774Z,1.70
2023-07-07T01:03:41.299Z,1.67
2023-07-07T01:06:11.679Z,1.58
2023-07-07T01:08:40.644Z,1.70
2023-07-07T01:11:07.255Z,1.65
2023-07-07T01:13:33.987Z,1.77
2023-07-07T01:16:27.078Z,2.13
2023-07-07T01:19:00.081Z,1.27
2023-07-07T01:24:52.298Z,1.65
2023-07-07T01:27:31.916Z,1.60
2023-07-07T01:30:04.552Z,1.70
2023-07-07T01:32:32.935Z,1.50
2023-07-07T01:35:08.544Z,1.50
2023-07-07T01:37:35.041Z,2.15
2023-07-07T01:40:02.546Z,1.63
2023-07-07T01:43:00.674Z,1.77
2023-07-07T01:45:34.780Z,1.77
2023-07-07T01:48:15.264Z,1.15
2023-07-07T01:50:42.406Z,1.27
2023-07-07T01:53:14.985Z,1.20
2023-07-07T01:55:48.802Z,1.55
2023-07-07T01:58:16.464Z,1.80
2023-07-07T02:00:45.057Z,1.48
2023-07-07T02:03:12.181Z,1.70
2023-07-07T02:05:39.329Z,1.55
2023-07-07T02:08:06.119Z,1.52
2023-07-07T02:10:33.002Z,1.42
2023-07-07T02:12:59.914Z,2.00
2023-07-07T02:15:26.514Z,1.88
2023-07-07T02:17:53.533Z,1.90
2023-07-07T02:20:21.154Z,1.65
2023-07-07T02:22:50.175Z,1.75
2023-07-07T02:25:16.674Z,1.50
2023-07-07T02:27:43.969Z,1.50
2023-07-07T02:30:10.791Z,1.88
2023-07-07T02:32:37.337Z,1.85
2023-07-07T02:35:04.847Z,1.77
2023-07-07T02:37:31.405Z,1.33
2023-07-07T02:40:01.094Z,1.77
2023-07-07T02:42:27.766Z,1.58
2023-07-07T02:44:54.155Z,1.60
2023-07-07T02:47:20.695Z,1.33
2023-07-07T02:49:47.445Z,1.42
2023-07-07T02:52:14.223Z,1.63
2023-07-07T02:54:41.111Z,1.45
2023-07-07T02:57:08.604Z,1.40
2023-07-07T02:59:35.116Z,1.63
2023-07-07T03:02:02.047Z,1.92
2023-07-07T03:06:55.773Z,1.33
2023-07-07T03:09:22.681Z,1.83
2023-07-07T03:11:49.276Z,1.70
2023-07-07T03:14:19.276Z,2.00
2023-07-07T03:16:46.137Z,2.00
2023-07-07T03:19:13.212Z,1.63
2023-07-07T03:24:07.854Z,1.40
2023-07-07T03:26:34.654Z,1.13
2023-07-07T03:29:01.218Z,2.22
2023-07-07T03:31:31.468Z,1.88
2023-07-07T03:34:01.538Z,1.70
2023-07-07T03:36:31.335Z,1.80
2023-07-07T03:38:58.413Z,2.08
2023-07-07T03:43:53.238Z,1.20
2023-07-07T03:46:22.399Z,1.65
2023-07-07T03:48:50.654Z,1.65
2023-07-07T03:51:19.475Z,2.28
2023-07-07T03:53:46.681Z,1.73
2023-07-07T03:56:13.832Z,1.85
2023-07-07T03:58:40.703Z,1.52
2023-07-07T04:01:10.027Z,1.60
2023-07-07T04:03:37.754Z,2.05
2023-07-07T04:06:04.824Z,2.10
2023-07-07T04:08:31.880Z,1.92
2023-07-07T04:11:05.752Z,1.55
2023-07-07T04:13:38.633Z,2.30
2023-07-07T04:16:25.366Z,1.67
2023-07-07T04:18:55.797Z,1.73
2023-07-07T04:21:27.042Z,1.55
2023-07-07T04:23:55.403Z,2.40
2023-07-07T04:26:24.124Z,2.33
2023-07-07T04:28:52.352Z,1.73
2023-07-07T04:31:19.696Z,2.03
2023-07-07T04:33:46.544Z,2.20
2023-07-07T04:36:13.973Z,1.73
2023-07-07T04:38:40.814Z,1.92
2023-07-07T04:41:11.916Z,2.20
2023-07-07T04:43:48.118Z,1.70
2023-07-07T04:46:21.735Z,2.00
2023-07-07T04:48:49.440Z,2.45
2023-07-07T04:51:16.230Z,2.13
2023-07-07T04:53:43.036Z,2.00
2023-07-07T04:56:16.472Z,1.65
2023-07-07T04:58:45.311Z,2.72
2023-07-07T05:01:18.309Z,1.95
2023-07-07T05:06:13.992Z,1.58
2023-07-07T05:08:42.551Z,2.00
2023-07-07T05:11:14.397Z,1.90
2023-07-07T05:13:41.644Z,2.10
2023-07-07T05:16:10.184Z,2.05
2023-07-07T05:18:37.017Z,1.95
2023-07-07T05:21:06.780Z,1.83
2023-07-07T05:23:34.873Z,1.88
2023-07-07T05:26:01.597Z,2.63
2023-07-07T05:28:28.451Z,1.75
2023-07-07T05:30:55.611Z,1.42
2023-07-07T05:33:23.433Z,2.08
2023-07-07T05:35:51.865Z,1.92
2023-07-07T05:38:19.711Z,1.67
2023-07-07T05:40:47.032Z,1.60
2023-07-07T05:43:15.062Z,1.42
2023-07-07T05:45:41.930Z,1.65
2023-07-07T05:48:10.287Z,1.45
2023-07-07T05:50:37.396Z,1.40
2023-07-07T05:53:03.873Z,1.63
2023-07-07T05:55:32.985Z,1.50
2023-07-07T05:58:01.030Z,1.92
2023-07-07T06:00:28.700Z,1.50
2023-07-07T06:02:58.990Z,1.33
2023-07-07T06:05:27.062Z,1.50
2023-07-07T06:07:55.864Z,1.60
2023-07-07T06:10:22.489Z,2.15
2023-07-07T06:12:49.969Z,1.20
2023-07-07T06:15:16.745Z,1.42
2023-07-07T06:20:10.199Z,1.33
2023-07-07T06:22:36.750Z,1.83
2023-07-07T06:25:04.520Z,1.33
2023-07-07T06:27:32.141Z,1.30
2023-07-07T06:29:59.772Z,1.88
2023-07-07T06:32:26.319Z,1.40
2023-07-07T06:34:52.968Z,3.75
2023-07-07T06:37:19.411Z,2.38
2023-07-07T06:39:46.153Z,2.13
2023-07-07T06:44:40.569Z,1.10
2023-07-07T06:47:12.381Z,1.80
2023-07-07T06:49:38.861Z,1.70
2023-07-07T06:52:05.917Z,1.75
2023-07-07T06:54:32.384Z,1.65
2023-07-07T06:56:58.998Z,1.45
2023-07-07T06:59:26.904Z,1.48
2023-07-07T07:01:53.384Z,1.35
2023-07-07T07:04:20.229Z,1.38
2023-07-07T07:06:47.088Z,1.40
2023-07-07T07:09:13.671Z,1.55
2023-07-07T07:11:40.522Z,1.35
2023-07-07T07:14:07.393Z,1.25
2023-07-07T07:16:34.071Z,1.23
2023-07-07T07:21:27.447Z,1.27
2023-07-07T07:23:54.449Z,1.40
2023-07-07T07:26:21.037Z,1.40
2023-07-07T07:28:47.892Z,1.35
2023-07-07T07:31:14.477Z,2.30
2023-07-07T07:33:41.361Z,1.48
2023-07-07T07:36:08.259Z,1.25
2023-07-07T07:38:34.996Z,1.65
2023-07-07T07:43:28.253Z,1.40
2023-07-07T07:48:22.411Z,1.10
2023-07-07T07:53:16.076Z,1.52
2023-07-07T07:55:42.799Z,1.50
2023-07-07T08:00:37.226Z,1.10
2023-07-07T08:03:03.869Z,1.33
2023-07-07T08:07:56.842Z,1.30
2023-07-07T08:10:23.427Z,0.95
2023-07-07T08:12:49.966Z,1.15
2023-07-07T08:15:17.202Z,1.40
2023-07-07T08:17:43.859Z,1.30
2023-07-07T08:20:19.184Z,1.17
2023-07-07T08:22:46.263Z,1.27
2023-07-07T08:25:13.133Z,0.95
2023-07-07T08:27:39.818Z,1.10
2023-07-07T08:30:07.615Z,1.63
2023-07-07T08:32:34.474Z,1.00
2023-07-07T08:35:01.026Z,1.30
2023-07-07T08:39:55.352Z,1.27
2023-07-07T08:42:37.310Z,1.23
2023-07-07T08:45:12.891Z,1.42
2023-07-07T08:48:00.698Z,1.50
2023-07-07T08:50:33.946Z,1.10
2023-07-07T08:53:38.772Z,1.58
2023-07-07T08:56:25.275Z,1.02
2023-07-07T08:59:04.001Z,1.20
2023-07-07T09:01:47.596Z,1.05
2023-07-07T09:04:38.486Z,1.40
2023-07-07T09:07:32.379Z,1.10
2023-07-07T09:10:00.355Z,1.35
2023-07-07T09:12:49.852Z,1.05
2023-07-07T09:15:23.184Z,1.48
2023-07-07T09:18:09.182Z,1.10
2023-07-07T09:20:37.396Z,1.38
2023-07-07T09:23:17.741Z,1.05
2023-07-07T09:26:17.333Z,1.52
2023-07-07T09:28:48.009Z,1.23
2023-07-07T09:31:23.901Z,1.63
2023-07-07T09:33:51.549Z,1.25
2023-07-07T09:36:28.271Z,1.20
2023-07-07T09:39:27.179Z,1.27
2023-07-07T09:42:22.691Z,1.50
2023-07-07T09:45:19.707Z,1.65
2023-07-07T09:48:08.360Z,1.25
2023-07-07T09:50:46.103Z,1.20
2023-07-07T09:53:24.581Z,1.67
2023-07-07T09:55:54.164Z,1.70
2023-07-07T09:58:23.765Z,1.50
2023-07-07T10:00:56.087Z,1.35
2023-07-07T10:03:49.361Z,1.13
2023-07-07T10:06:38.006Z,1.30
2023-07-07T10:09:05.128Z,1.40
2023-07-07T10:12:09.901Z,1.15
2023-07-07T10:14:29.163Z,1.27
2023-07-07T10:17:11.278Z,1.27
2023-07-07T10:19:54.225Z,1.25
2023-07-07T10:22:22.717Z,1.38
2023-07-07T10:24:49.595Z,1.33
2023-07-07T10:27:27.911Z,1.10
2023-07-07T10:30:01.324Z,1.02
2023-07-07T10:32:28.406Z,1.40
2023-07-07T10:34:58.969Z,1.52
2023-07-07T10:37:30.109Z,1.55
2023-07-07T10:39:59.276Z,1.35
2023-07-07T10:42:28.089Z,1.48
2023-07-07T10:44:57.410Z,1.48
2023-07-07T10:47:37.752Z,1.50
2023-07-07T10:50:12.741Z,1.10
2023-07-07T10:56:10.370Z,1.38
2023-07-07T10:59:10.865Z,1.40
2023-07-07T11:01:47.569Z,1.40
2023-07-07T11:04:58.552Z,1.42
2023-07-07T11:07:43.825Z,1.42
2023-07-07T11:10:38.108Z,1.40
2023-07-07T11:13:44.168Z,1.10
2023-07-07T11:16:13.554Z,1.30
2023-07-07T11:19:14.145Z,1.25
2023-07-07T11:22:01.967Z,1.13
2023-07-07T11:24:56.421Z,1.52
2023-07-07T11:27:34.469Z,1.60
2023-07-07T11:30:10.536Z,1.38
2023-07-07T11:33:01.901Z,1.80
2023-07-07T11:35:59.311Z,1.52
2023-07-07T11:39:07.556Z,1.38
2023-07-07T11:41:45.069Z,1.48
2023-07-07T11:44:34.689Z,1.48
2023-07-07T11:47:23.147Z,1.30
2023-07-07T11:49:59.734Z,1.50
2023-07-07T11:52:41.459Z,1.58
2023-07-07T11:55:28.564Z,1.40
2023-07-07T11:58:04.260Z,1.30
2023-07-07T12:00:42.598Z,1.70
2023-07-07T12:03:37.748Z,1.38
2023-07-07T12:06:17.483Z,1.38
2023-07-07T12:08:54.924Z,1.50
2023-07-07T12:11:23.548Z,1.55
2023-07-07T12:14:22.946Z,1.65
2023-07-07T12:16:52.832Z,1.40
2023-07-07T12:19:42.692Z,1.27
2023-07-07T12:22:29.746Z,1.50
2023-07-07T12:25:06.705Z,1.30
2023-07-07T12:27:39.585Z,1.17
2023-07-07T12:30:13.226Z,1.42
2023-07-07T12:32:40.576Z,1.45
2023-07-07T12:35:15.870Z,1.33
2023-07-07T12:37:42.980Z,1.73
2023-07-07T12:40:09.599Z,1.30
2023-07-07T12:42:38.842Z,1.38
2023-07-07T12:45:32.693Z,1.42
2023-07-07T12:48:05.998Z,1.60
2023-07-07T12:50:37.464Z,1.80
2023-07-07T12:53:10.346Z,1.52
2023-07-07T12:55:39.974Z,1.50
2023-07-07T12:58:06.453Z,1.52
2023-07-07T13:00:40.677Z,1.60
2023-07-07T13:03:10.140Z,1.30
2023-07-07T13:05:51.334Z,1.52
2023-07-07T13:08:37.172Z,1.70
2023-07-07T13:11:08.432Z,1.63
2023-07-07T13:13:38.196Z,1.52
2023-07-07T13:16:10.197Z,1.60
2023-07-07T13:18:36.890Z,1.50
2023-07-07T13:21:05.283Z,1.40
2023-07-07T13:23:38.805Z,1.50
2023-07-07T13:26:05.460Z,1.52
2023-07-07T13:28:32.192Z,1.58
2023-07-07T13:30:59.900Z,1.25
2023-07-07T13:33:29.337Z,1.65
2023-07-07T13:35:59.145Z,1.67
2023-07-07T13:38:29.970Z,1.63
2023-07-07T13:40:57.249Z,1.50
2023-07-07T13:43:46.444Z,1.60
2023-07-07T13:46:19.349Z,1.42
2023-07-07T13:48:50.674Z,1.70
2023-07-07T13:51:25.952Z,1.60
2023-07-07T13:53:52.803Z,2.05
2023-07-07T13:56:19.853Z,1.80
2023-07-07T13:58:48.969Z,1.58
2023-07-07T14:01:28.068Z,1.50
2023-07-07T14:03:58.313Z,1.63
2023-07-07T14:06:25.478Z,1.90
2023-07-07T14:08:53.033Z,1.70
2023-07-07T14:11:27.805Z,1.80
2023-07-07T14:14:02.312Z,1.60
2023-07-07T14:16:33.276Z,1.55
2023-07-07T14:19:02.560Z,1.90
2023-07-07T14:21:32.850Z,1.73
2023-07-07T14:24:00.535Z,1.90
2023-07-07T14:26:27.886Z,1.50
2023-07-07T14:28:57.189Z,1.95
2023-07-07T14:31:25.087Z,1.88
2023-07-07T14:33:58.693Z,1.55
2023-07-07T14:36:51.469Z,2.08
2023-07-07T14:39:23.837Z,1.50
2023-07-07T14:41:50.668Z,1.55
2023-07-07T14:44:51.877Z,1.40
2023-07-07T14:47:24.087Z,1.80
2023-07-07T14:49:51.560Z,1.75
2023-07-07T14:52:42.333Z,1.98
2023-07-07T14:55:19.198Z,1.50
2023-07-07T14:57:51.593Z,1.67
2023-07-07T15:01:04.487Z,1.70
2023-07-07T15:03:31.910Z,1.50
2023-07-07T15:06:07.632Z,1.65
2023-07-07T15:08:37.448Z,1.50
2023-07-07T15:11:07.481Z,1.80
2023-07-07T15:13:34.574Z,1.80
2023-07-07T15:16:04.823Z,1.75
2023-07-07T15:18:31.509Z,2.03
2023-07-07T15:20:57.977Z,1.70
2023-07-07T15:23:24.541Z,1.50
2023-07-07T15:25:51.490Z,1.80
2023-07-07T15:28:20.576Z,1.60
2023-07-07T15:30:47.355Z,1.50
2023-07-07T15:33:16.102Z,1.95
2023-07-07T15:35:42.596Z,1.83
2023-07-07T15:38:52.381Z,1.92
2023-07-07T15:41:24.656Z,2.05
2023-07-07T15:43:51.704Z,1.90
2023-07-07T15:46:27.618Z,1.80
2023-07-07T15:48:54.558Z,1.77
2023-07-07T15:51:35.684Z,2.08
2023-07-07T15:54:04.818Z,1.70
2023-07-07T15:56:34.199Z,1.90
2023-07-07T15:59:01.974Z,1.90
2023-07-07T16:01:29.224Z,1.60
2023-07-07T16:03:56.268Z,1.60
2023-07-07T16:06:23.236Z,1.85
2023-07-07T16:08:49.761Z,1.90
2023-07-07T16:11:23.487Z,2.00
2023-07-07T16:13:53.544Z,2.17
2023-07-07T16:16:24.020Z,1.80
2023-07-07T16:18:50.607Z,1.73
2023-07-07T16:23:49.516Z,1.60
2023-07-07T16:26:30.107Z,1.85
2023-07-07T16:28:57.675Z,1.90
2023-07-07T16:31:27.008Z,2.10
2023-07-07T16:33:53.676Z,2.00
2023-07-07T16:36:22.378Z,1.80
2023-07-07T16:38:50.786Z,2.00
2023-07-07T16:41:21.619Z,2.00
2023-07-07T16:43:50.221Z,1.90
2023-07-07T16:46:20.478Z,2.17
2023-07-07T16:48:50.033Z,1.90
2023-07-07T16:51:21.547Z,2.08
2023-07-07T16:53:48.105Z,2.00
2023-07-07T16:56:27.209Z,1.90
2023-07-07T16:58:54.376Z,1.88
2023-07-07T17:01:21.735Z,2.20
2023-07-07T17:03:48.632Z,2.20
2023-07-07T17:06:21.508Z,2.03
2023-07-07T17:08:48.723Z,2.00
2023-07-07T17:11:15.441Z,2.08
2023-07-07T17:13:42.247Z,1.90
2023-07-07T17:16:21.836Z,2.13
2023-07-07T17:18:52.062Z,1.75
2023-07-07T17:21:19.681Z,1.95
2023-07-07T17:23:47.492Z,5.22
2023-07-07T17:26:26.415Z,2.30
2023-07-07T17:28:54.198Z,2.30
2023-07-07T17:31:25.526Z,1.90
2023-07-07T17:33:54.052Z,1.58
2023-07-07T17:36:27.643Z,1.67
2023-07-07T17:38:56.134Z,1.60
2023-07-07T17:41:27.375Z,1.60
2023-07-07T17:43:54.382Z,1.75
2023-07-07T17:46:35.995Z,1.95
2023-07-07T17:49:11.098Z,1.60
2023-07-07T17:51:37.632Z,1.85
2023-07-07T17:56:32.733Z,1.55
2023-07-07T17:59:01.244Z,1.70
2023-07-07T18:01:28.734Z,1.75
2023-07-07T18:03:55.397Z,1.33
2023-07-07T18:08:56.707Z,1.55
2023-07-07T18:11:28.879Z,1.90
2023-07-07T18:13:56.059Z,1.80
2023-07-07T18:16:33.635Z,1.58
2023-07-07T18:19:31.230Z,2.08
2023-07-07T18:21:55.243Z,1.65
2023-07-07T18:24:24.306Z,2.10
2023-07-07T18:26:51.349Z,1.88
2023-07-07T18:29:21.711Z,1.63
2023-07-07T18:31:48.708Z,1.50
2023-07-07T18:34:15.504Z,1.60
2023-07-07T18:39:28.397Z,1.55
2023-07-07T18:41:56.181Z,1.67
2023-07-07T18:44:24.152Z,1.60
2023-07-07T18:46:52.632Z,1.80
2023-07-07T18:49:20.629Z,1.73
2023-07-07T18:51:47.642Z,1.77
2023-07-07T18:54:17.422Z,2.40
2023-07-07T18:56:45.972Z,2.20
2023-07-07T18:59:18.149Z,1.90
2023-07-07T19:01:45.040Z,1.90
2023-07-07T19:04:11.660Z,2.00
2023-07-07T19:09:16.363Z,2.03
2023-07-07T19:11:43.168Z,1.80
2023-07-07T19:14:09.815Z,1.75
2023-07-07T19:16:36.553Z,1.90
2023-07-07T19:19:03.629Z,1.77
2023-07-07T19:21:33.050Z,2.30
2023-07-07T19:24:00.936Z,1.73
2023-07-07T19:26:27.537Z,1.65
2023-07-07T19:28:54.903Z,2.17
2023-07-07T19:31:23.348Z,1.92
2023-07-07T19:33:50.489Z,2.00
2023-07-07T19:36:25.597Z,1.67
2023-07-07T19:38:53.516Z,1.75
2023-07-07T19:41:22.380Z,1.77
2023-07-07T19:43:50.717Z,1.55
2023-07-07T19:46:24.654Z,1.83
2023-07-07T19:48:52.476Z,1.90
2023-07-07T19:51:20.788Z,1.77
2023-07-07T19:53:48.272Z,1.85
2023-07-07T19:56:16.281Z,2.70
2023-07-07T19:58:44.612Z,2.65
2023-07-07T20:01:19.582Z,2.25
2023-07-07T20:03:47.429Z,2.35
2023-07-07T20:06:26.421Z,2.20
2023-07-07T20:08:54.439Z,2.28
2023-07-07T20:11:26.956Z,2.08
2023-07-07T20:13:56.130Z,2.10
2023-07-07T20:16:41.845Z,2.22
2023-07-07T20:19:17.350Z,2.15
2023-07-07T20:21:44.402Z,2.35
2023-07-07T20:24:19.706Z,2.30
2023-07-07T20:26:48.150Z,2.42
2023-07-07T20:29:16.717Z,2.70
2023-07-07T20:31:43.682Z,2.35
2023-07-07T20:34:11.714Z,2.65
2023-07-07T20:36:38.804Z,2.65
2023-07-07T20:39:23.520Z,3.28
2023-07-07T20:41:50.259Z,3.08
2023-07-07T20:44:17.104Z,3.03
2023-07-07T20:46:46.018Z,2.83
2023-07-07T20:49:20.408Z,3.15
2023-07-07T20:51:47.838Z,2.97
2023-07-07T20:54:14.388Z,2.95
2023-07-07T20:56:41.365Z,2.90
2023-07-07T20:59:25.883Z,3.50
2023-07-07T21:01:55.330Z,3.22
2023-07-07T21:04:21.935Z,3.10
2023-07-07T21:06:48.572Z,2.92
2023-07-07T21:09:16.504Z,2.83
2023-07-07T21:11:43.004Z,2.80
2023-07-07T21:14:09.523Z,3.35
2023-07-07T21:16:39.726Z,3.03
2023-07-07T21:19:11.753Z,3.30
2023-07-07T21:21:39.588Z,3.70
2023-07-07T21:24:06.714Z,3.53
2023-07-07T21:26:33.311Z,2.67
2023-07-07T21:29:00.559Z,3.10
2023-07-07T21:31:31.637Z,2.85
2023-07-07T21:33:58.651Z,3.00
2023-07-07T21:36:44.867Z,2.75
2023-07-07T21:39:28.155Z,2.63
2023-07-07T21:42:10.989Z,3.00
2023-07-07T21:44:40.320Z,3.03
2023-07-07T21:47:06.988Z,2.80
2023-07-07T21:52:03.839Z,2.60
2023-07-07T21:54:31.432Z,3.50
2023-07-07T21:56:58.582Z,2.88
2023-07-07T21:59:25.304Z,3.25
2023-07-07T22:04:19.843Z,2.45
2023-07-07T22:06:48.573Z,2.20
2023-07-07T22:09:17.980Z,2.80
2023-07-07T22:11:45.357Z,2.20
2023-07-07T22:14:12.332Z,2.80
2023-07-07T22:16:39.027Z,2.33
2023-07-07T22:19:05.641Z,2.95
2023-07-07T22:21:32.169Z,2.45
2023-07-07T22:23:58.662Z,2.65
2023-07-07T22:26:26.007Z,2.22
2023-07-07T22:28:52.705Z,2.33
2023-07-07T22:31:20.498Z,2.25
2023-07-07T22:33:47.811Z,2.63
2023-07-07T22:36:20.348Z,2.70
2023-07-07T22:38:47.652Z,3.15
2023-07-07T22:41:23.638Z,2.97
2023-07-07T22:43:51.643Z,2.78
2023-07-07T22:46:43.260Z,3.10
2023-07-07T22:49:14.148Z,2.83
2023-07-07T22:51:43.379Z,3.03
2023-07-07T22:54:09.985Z,2.60
2023-07-07T22:56:37.667Z,3.08
2023-07-07T22:59:18.617Z,2.33
2023-07-07T23:01:45.138Z,2.90
2023-07-07T23:04:12.105Z,3.47
2023-07-07T23:06:38.948Z,2.88
2023-07-07T23:12:01.401Z,2.30
2023-07-07T23:16:56.327Z,2.53
2023-07-07T23:19:24.000Z,2.95
2023-07-07T23:24:18.804Z,2.28
2023-07-07T23:26:45.433Z,2.65
2023-07-07T23:29:13.145Z,3.25
2023-07-07T23:31:39.807Z,2.55
2023-07-07T23:36:34.207Z,2.60
2023-07-07T23:39:01.953Z,2.58
2023-07-07T23:41:29.440Z,2.60
2023-07-07T23:43:56.320Z,2.67
2023-07-07T23:46:23.372Z,2.22
2023-07-07T23:48:50.235Z,2.38
2023-07-07T23:51:16.806Z,2.58
2023-07-07T23:53:45.053Z,2.08
2023-07-07T23:56:19.178Z,2.22
2023-07-07T23:58:46.949Z,2.47
